Terminal Aerodrome Forecast
Issued by NWS Grand Forks, ND

Home | Current Version | Previous Version | Graphics & Text | Print | Product List | Glossary On
Versions: 1 2 3 4 5 6 7 8 9 10 11 12 13 14 15 16 17 18 19 20 21 22
000
FTUS43 KFGF 190500
TAFFAR
TAF
KFAR 190520Z 1906/2006 13008KT P6SM OVC090
     FM190700 10010KT P6SM -RA OVC050
     FM190900 35011KT P6SM -RA OVC025
     FM191100 33016G24KT P6SM -RA OVC035
     FM191800 32019G28KT P6SM OVC040
     FM200200 32015KT P6SM BKN050=

USA.gov is the U.S. government's official web portal to all federal, state and local government web resources and services.